Decoded Metar for KBNL (BROOKHAVEN LAB in SC, USA) (IATA:BNL) | Meteo·Mobile Aviation Weather
aviador You're here:

KBNL Decoded Metar

BROOKHAVEN LAB in SC, USA
Report Time2019-01-22 00:55:00
UTC Time2019-01-22 01:02:27
Flight Rules vfr VFR
WindCalm
Visibility9999 m
Phenomena:N/A
Clouds:N/A
Expected CloudBase > 3,200 ft AGL from Temp-Dew spread
CeilingNone
Temp00°C (ISA -15)
Dew Point-8°C (55% RH)
AAT-2.9°C
QNH1032 hPa
Density Alt-2,123 ft
Elevation246 ft
Report Wrong Elevation
Raw Report
METAR KBNL 220055Z AUTO 00000KT 10SM CLR 00/M08 A3048 RMK AO2=

Extra information for KBNL:More info

Metar Taf Metar & Taf Last 4 Metars F.Rules Stats Wind Profile Meteogram Temp Stats Airport Information Weather charts Add Link Nearby VenuesMetar ALERT Operation Metar Decoded Social comments

AIRNAV info for KBNL